createdAt,value
2022-10-01T00:01:00.387Z,12.27
2022-10-01T00:05:04.806Z,12.11
2022-10-01T00:09:07.680Z,12.11
2022-10-01T00:13:11.018Z,12.02
2022-10-01T00:17:13.831Z,11.86
2022-10-01T00:21:19.931Z,11.75
2022-10-01T00:25:22.819Z,11.62
2022-10-01T00:29:25.649Z,11.65
2022-10-01T00:33:28.342Z,11.51
2022-10-01T00:37:35.385Z,11.49
2022-10-01T00:41:38.675Z,11.55
2022-10-01T00:45:41.522Z,11.40
2022-10-01T00:49:46.686Z,11.31
2022-10-01T00:53:50.823Z,11.39
2022-10-01T00:57:55.464Z,11.51
2022-10-01T01:01:58.530Z,11.39
2022-10-01T01:06:01.374Z,11.45
2022-10-01T01:10:07.394Z,11.48
2022-10-01T01:14:18.684Z,11.41
2022-10-01T01:18:27.797Z,11.52
2022-10-01T01:22:35.895Z,11.61
2022-10-01T01:26:51.069Z,11.50
2022-10-01T01:31:01.329Z,11.57
2022-10-01T01:35:08.270Z,11.46
2022-10-01T01:39:15.450Z,11.45
2022-10-01T01:43:22.725Z,11.46
2022-10-01T01:47:33.612Z,11.47
2022-10-01T01:51:44.657Z,11.40
2022-10-01T01:55:49.513Z,11.35
2022-10-01T01:59:52.283Z,11.33
2022-10-01T02:03:56.926Z,11.40
2022-10-01T02:08:27.939Z,11.34
2022-10-01T02:12:43.372Z,11.32
2022-10-01T02:16:51.420Z,11.33
2022-10-01T02:21:03.878Z,11.28
2022-10-01T02:25:09.783Z,11.24
2022-10-01T02:29:17.526Z,11.24
2022-10-01T02:33:24.326Z,11.25
2022-10-01T02:37:29.586Z,11.23
2022-10-01T02:41:36.650Z,11.24
2022-10-01T02:45:42.138Z,11.23
2022-10-01T02:49:45.315Z,11.19
2022-10-01T02:53:54.080Z,11.16
2022-10-01T02:57:57.856Z,11.19
2022-10-01T03:02:00.844Z,11.31
2022-10-01T03:06:03.787Z,11.23
2022-10-01T03:10:09.678Z,11.29
2022-10-01T03:14:12.425Z,11.34
2022-10-01T03:18:15.116Z,11.34
2022-10-01T03:22:20.995Z,11.35
2022-10-01T03:26:25.245Z,11.38
2022-10-01T03:30:28.465Z,11.40
2022-10-01T03:34:31.327Z,11.37
2022-10-01T03:38:34.205Z,11.45
2022-10-01T03:42:38.381Z,11.54
2022-10-01T03:46:41.222Z,11.63
2022-10-01T03:50:43.936Z,11.63
2022-10-01T03:54:46.719Z,11.63
2022-10-01T03:58:51.250Z,11.69
2022-10-01T04:02:54.131Z,11.74
2022-10-01T04:06:56.917Z,11.81
2022-10-01T04:11:00.998Z,11.94
2022-10-01T04:15:05.554Z,11.93
2022-10-01T04:19:08.350Z,11.95
2022-10-01T04:23:11.066Z,11.99
2022-10-01T04:27:13.870Z,12.10
2022-10-01T04:31:27.093Z,12.22
2022-10-01T04:35:30.131Z,12.26
2022-10-01T04:39:32.858Z,12.28
2022-10-01T04:43:35.698Z,12.23
2022-10-01T04:47:40.122Z,12.21
2022-10-01T04:51:42.784Z,12.26
2022-10-01T04:55:46.569Z,12.36
2022-10-01T04:59:51.033Z,12.35
2022-10-01T05:03:55.306Z,12.41
2022-10-01T05:07:58.173Z,12.43
2022-10-01T05:12:01.608Z,12.47
2022-10-01T05:16:04.493Z,12.43
2022-10-01T05:20:11.964Z,12.44
2022-10-01T05:24:16.282Z,12.49
2022-10-01T05:28:22.406Z,12.54
2022-10-01T05:32:25.615Z,12.59
2022-10-01T05:36:29.830Z,12.66
2022-10-01T05:40:33.362Z,12.72
2022-10-01T05:44:38.036Z,12.79
2022-10-01T05:48:40.814Z,12.83
2022-10-01T05:52:54.646Z,12.80
2022-10-01T05:56:57.627Z,12.80
2022-10-01T06:01:00.472Z,12.91
2022-10-01T06:05:03.212Z,12.87
2022-10-01T06:09:07.555Z,12.85
2022-10-01T06:13:10.622Z,12.87
2022-10-01T06:17:13.451Z,12.85
2022-10-01T06:21:16.820Z,12.83
2022-10-01T06:25:20.973Z,12.83
2022-10-01T06:29:24.229Z,12.86
2022-10-01T06:33:26.976Z,12.92
2022-10-01T06:37:29.922Z,12.96
2022-10-01T06:41:34.707Z,12.99
2022-10-01T06:45:40.773Z,13.02
2022-10-01T06:49:47.321Z,13.03
2022-10-01T06:53:50.400Z,13.06
2022-10-01T06:57:58.653Z,13.14
2022-10-01T07:02:01.517Z,13.19
2022-10-01T07:06:08.174Z,13.19
2022-10-01T07:10:12.803Z,13.05
2022-10-01T07:14:16.847Z,12.96
2022-10-01T07:18:19.802Z,12.86
2022-10-01T07:22:24.346Z,12.84
2022-10-01T07:26:27.109Z,12.92
2022-10-01T07:30:31.314Z,12.92
2022-10-01T07:34:34.155Z,12.96
2022-10-01T07:38:37.227Z,12.98
2022-10-01T07:42:40.468Z,12.93
2022-10-01T07:46:44.815Z,13.03
2022-10-01T07:50:47.681Z,13.12
2022-10-01T07:54:50.518Z,13.09
2022-10-01T07:58:56.358Z,13.05
2022-10-01T08:03:00.694Z,13.03
2022-10-01T08:07:03.555Z,13.11
2022-10-01T08:11:07.221Z,13.18
2022-10-01T08:15:11.463Z,13.24
2022-10-01T08:19:15.821Z,13.25
2022-10-01T08:23:18.755Z,13.31
2022-10-01T08:27:21.600Z,13.42
2022-10-01T08:31:25.019Z,13.52
2022-10-01T08:35:30.255Z,13.81
2022-10-01T08:39:33.127Z,14.18
2022-10-01T08:43:40.018Z,14.05
2022-10-01T08:47:49.453Z,13.99
2022-10-01T08:51:59.339Z,13.89
2022-10-01T08:56:03.680Z,13.66
2022-10-01T09:00:12.906Z,13.52
2022-10-01T09:04:15.932Z,13.48
2022-10-01T09:08:43.597Z,13.45
2022-10-01T09:12:55.056Z,13.48
2022-10-01T09:17:06.445Z,13.46
2022-10-01T09:21:18.834Z,13.62
2022-10-01T09:25:25.443Z,13.78
2022-10-01T09:29:33.867Z,13.90
2022-10-01T09:33:39.530Z,13.99
2022-10-01T09:37:50.390Z,14.00
2022-10-01T09:41:54.552Z,14.06
2022-10-01T09:45:57.811Z,14.16
2022-10-01T09:50:04.720Z,14.64
2022-10-01T09:54:17.111Z,16.28
2022-10-01T09:58:24.297Z,17.46
2022-10-01T10:02:32.835Z,17.50
2022-10-01T10:06:35.882Z,17.95
2022-10-01T10:10:40.457Z,17.85
2022-10-01T10:14:45.120Z,17.83
2022-10-01T10:18:52.485Z,18.21
2022-10-01T10:22:55.414Z,17.98
2022-10-01T10:26:59.764Z,18.42
2022-10-01T10:31:04.108Z,18.46
2022-10-01T10:35:13.451Z,18.07
2022-10-01T10:39:22.765Z,18.66
2022-10-01T10:43:30.678Z,18.16
2022-10-01T10:47:46.670Z,17.38
2022-10-01T10:51:54.194Z,17.25
2022-10-01T10:55:59.714Z,17.52
2022-10-01T11:00:08.332Z,17.66
2022-10-01T11:04:25.850Z,18.19
2022-10-01T11:08:29.282Z,18.79
2022-10-01T11:12:46.924Z,18.61
2022-10-01T11:17:13.028Z,18.43
2022-10-01T11:21:37.301Z,17.98
2022-10-01T11:25:52.890Z,17.76
2022-10-01T11:30:05.182Z,17.18
2022-10-01T11:34:34.251Z,16.58
2022-10-01T11:38:48.229Z,16.46
2022-10-01T11:42:52.946Z,16.17
2022-10-01T11:47:01.249Z,15.92
2022-10-01T11:51:09.680Z,15.93
2022-10-01T11:55:36.785Z,17.79
2022-10-01T11:59:45.068Z,18.25
2022-10-01T12:04:08.351Z,18.63
2022-10-01T12:08:17.514Z,19.27
2022-10-01T12:12:28.057Z,19.43
2022-10-01T12:16:42.328Z,19.47
2022-10-01T12:20:49.791Z,19.52
2022-10-01T12:24:53.393Z,19.65
2022-10-01T12:29:02.053Z,20.07
2022-10-01T12:33:35.872Z,19.74
2022-10-01T12:37:50.891Z,20.31
2022-10-01T12:42:04.527Z,18.90
2022-10-01T12:46:18.570Z,19.86
2022-10-01T12:50:35.648Z,20.08
2022-10-01T12:55:10.973Z,19.55
2022-10-01T12:59:30.619Z,19.62
2022-10-01T13:03:47.575Z,20.30
2022-10-01T13:08:03.462Z,19.93
2022-10-01T13:12:23.300Z,18.78
2022-10-01T13:16:33.597Z,19.19
2022-10-01T13:20:44.781Z,19.10
2022-10-01T13:24:54.707Z,19.15
2022-10-01T13:29:08.190Z,19.53
2022-10-01T13:33:24.235Z,19.56
2022-10-01T13:37:37.744Z,19.96
2022-10-01T13:41:41.418Z,20.03
2022-10-01T13:45:47.221Z,20.22
2022-10-01T13:49:59.673Z,20.04
2022-10-01T13:54:07.950Z,20.19
2022-10-01T13:58:25.523Z,20.58
2022-10-01T14:02:36.841Z,20.56
2022-10-01T14:06:45.250Z,20.88
2022-10-01T14:11:14.646Z,21.08
2022-10-01T14:15:52.633Z,21.07
2022-10-01T14:19:55.926Z,20.93
2022-10-01T14:24:06.231Z,19.93
2022-10-01T14:28:21.675Z,19.83
2022-10-01T14:32:35.974Z,19.61
2022-10-01T14:36:44.560Z,20.20
2022-10-01T14:40:49.172Z,20.42
2022-10-01T14:44:53.484Z,19.50
2022-10-01T14:49:00.688Z,18.37
2022-10-01T14:53:03.886Z,18.02
2022-10-01T14:57:11.512Z,18.23
2022-10-01T15:01:20.498Z,18.59
2022-10-01T15:05:25.371Z,19.70
2022-10-01T15:09:34.704Z,19.22
2022-10-01T15:13:39.751Z,18.78
2022-10-01T15:17:44.273Z,19.03
2022-10-01T15:21:51.688Z,18.49
2022-10-01T15:25:55.922Z,18.62
2022-10-01T15:29:59.749Z,18.97
2022-10-01T15:34:06.263Z,19.21
2022-10-01T15:38:11.755Z,18.82
2022-10-01T15:42:23.698Z,18.27
2022-10-01T15:46:31.414Z,19.27
2022-10-01T15:50:39.310Z,19.27
2022-10-01T15:54:44.580Z,18.72
2022-10-01T15:58:53.317Z,18.90
2022-10-01T16:02:58.457Z,18.19
2022-10-01T16:07:02.887Z,17.61
2022-10-01T16:11:16.827Z,17.89
2022-10-01T16:15:27.283Z,18.12
2022-10-01T16:19:31.589Z,17.82
2022-10-01T16:23:43.137Z,17.71
2022-10-01T16:27:47.917Z,17.68
2022-10-01T16:31:51.627Z,17.51
2022-10-01T16:36:08.233Z,17.24
2022-10-01T16:40:16.139Z,17.35
2022-10-01T16:44:20.152Z,17.29
2022-10-01T16:48:23.345Z,16.73
2022-10-01T16:52:26.277Z,16.56
2022-10-01T16:56:30.306Z,16.26
2022-10-01T17:00:34.163Z,16.17
2022-10-01T17:04:36.927Z,15.84
2022-10-01T17:08:39.829Z,15.86
2022-10-01T17:12:44.734Z,15.58
2022-10-01T17:16:48.611Z,15.52
2022-10-01T17:20:51.462Z,15.38
2022-10-01T17:24:54.375Z,15.34
2022-10-01T17:28:58.777Z,15.26
2022-10-01T17:33:02.644Z,15.10
2022-10-01T17:37:05.354Z,15.04
2022-10-01T17:41:08.777Z,15.09
2022-10-01T17:45:14.777Z,15.06
2022-10-01T17:49:17.974Z,14.97
2022-10-01T17:53:20.663Z,14.85
2022-10-01T17:57:24.053Z,14.78
2022-10-01T18:01:28.283Z,14.69
2022-10-01T18:05:31.230Z,14.57
2022-10-01T18:09:33.959Z,14.50
2022-10-01T18:13:38.043Z,14.45
2022-10-01T18:17:43.737Z,14.46
2022-10-01T18:21:53.925Z,14.42
2022-10-01T18:25:56.675Z,14.48
2022-10-01T18:29:59.636Z,14.34
2022-10-01T18:34:07.044Z,14.17
2022-10-01T18:38:20.859Z,14.16
2022-10-01T18:42:29.858Z,14.05
2022-10-01T18:46:47.321Z,13.91
2022-10-01T18:50:58.731Z,13.85
2022-10-01T18:55:21.675Z,13.71
2022-10-01T18:59:39.435Z,13.59
2022-10-01T19:04:10.020Z,13.60
2022-10-01T19:08:38.532Z,13.66
2022-10-01T19:12:53.422Z,13.65
2022-10-01T19:17:08.717Z,13.57
2022-10-01T19:21:22.853Z,13.53
2022-10-01T19:25:33.373Z,13.39
2022-10-01T19:29:55.661Z,13.36
2022-10-01T19:34:06.130Z,13.29
2022-10-01T19:38:15.737Z,13.46
2022-10-01T19:42:24.701Z,13.29
2022-10-01T19:46:33.466Z,13.35
2022-10-01T19:50:41.920Z,13.27
2022-10-01T19:54:49.880Z,13.28
2022-10-01T19:58:54.550Z,13.16
2022-10-01T20:03:05.733Z,13.18
2022-10-01T20:07:12.301Z,13.20
2022-10-01T20:11:20.771Z,13.06
2022-10-01T20:15:34.809Z,13.12
2022-10-01T20:19:43.528Z,13.04
2022-10-01T20:23:52.408Z,12.93
2022-10-01T20:28:05.276Z,13.05
2022-10-01T20:32:17.401Z,12.93
2022-10-01T20:36:25.788Z,12.89
2022-10-01T20:40:33.171Z,12.87
2022-10-01T20:44:39.086Z,12.89
2022-10-01T20:48:48.764Z,12.84
2022-10-01T20:53:04.761Z,12.88
2022-10-01T20:57:15.398Z,12.85
2022-10-01T21:01:21.487Z,12.77
2022-10-01T21:05:29.857Z,12.93
2022-10-01T21:09:37.061Z,12.88
2022-10-01T21:13:47.657Z,12.94
2022-10-01T21:18:01.018Z,12.97
2022-10-01T21:22:19.903Z,12.96
2022-10-01T21:26:35.559Z,12.81
2022-10-01T21:30:53.668Z,12.76
2022-10-01T21:35:07.683Z,12.71
2022-10-01T21:39:17.906Z,12.71
2022-10-01T21:43:37.398Z,12.48
2022-10-01T21:48:08.089Z,12.66
2022-10-01T21:52:23.725Z,12.78
2022-10-01T21:56:55.223Z,12.81
2022-10-01T22:01:10.109Z,12.71
2022-10-01T22:05:24.735Z,12.92
2022-10-01T22:09:34.540Z,13.00
2022-10-01T22:13:42.478Z,12.89
2022-10-01T22:17:47.975Z,13.04
2022-10-01T22:21:56.187Z,13.14
2022-10-01T22:26:01.942Z,13.15
2022-10-01T22:30:11.920Z,13.18
2022-10-01T22:34:19.949Z,13.21
2022-10-01T22:38:27.620Z,13.28
2022-10-01T22:42:33.619Z,13.21
2022-10-01T22:46:55.861Z,13.22
2022-10-01T22:51:11.979Z,13.13
2022-10-01T22:55:27.304Z,13.11
2022-10-01T22:59:41.143Z,13.08
2022-10-01T23:03:57.029Z,13.07
2022-10-01T23:08:05.333Z,13.11
2022-10-01T23:12:16.734Z,13.15
2022-10-01T23:16:31.593Z,13.16
2022-10-01T23:20:43.921Z,13.25
2022-10-01T23:25:01.702Z,13.39
2022-10-01T23:29:16.819Z,13.51
2022-10-01T23:33:45.150Z,13.69
2022-10-01T23:38:09.161Z,13.85
2022-10-01T23:42:22.230Z,13.94
2022-10-01T23:46:28.607Z,14.08
2022-10-01T23:50:34.353Z,14.10
2022-10-01T23:54:45.786Z,14.15
2022-10-01T23:58:55.201Z,14.13
